Stevens Point, Wisconsin
Current Conditions -  °F | °C
As of 9:55 AM on Sunday 25 Jan 2015 (Local Time) from KSTE Reporting Station
Light Snow Light Snow  
Wind Chill:   Ceiling: 2100
Heat Index: 16°   Visibility: 10mi
Dew Point:   Wind: 8mph
Humidity: 72%   Direction: 60°ENE
Pressure: 29.98"   Gusts: NA
Location:  44.52°N, 89.57°W
Report Text: KSTE 251555Z AUTO 06007KT 10SM -SN OVC021 M09/M13 A2998 RMK AO2 T10901132
Loading
Personal Weather Stations






























Interactive Weather Map New forecast layout! Learn more

10-Day Weather Forecast

Advertisements
Track Severe Weather on mobile